Airfield :
LOGIN :

Register | Disclaimer

   EN    FR    IT 

 










Legend :    VFR   Marginal VFR   IFR   Intensive IFR   Very Intensive IFR
Visi :
Ceiling :
>= 8 km
>= 3000ft
5 to 8 km
1000 to 3000 ft
1500m to 5 km
500 to 1000 ft
800 to 1500m
200 to 500 ft
< 800m
< 200 ft
Symbols :   Thunderstorms  Fog  Heavy snow  Heavy precipitations  Wind > 20 kt
SIGMETs :     Misc.  Thunderstorms  Icing  Turbulence  Mountain Waves  Volcanic Ashes







- Airport Elevation : 18 ft


LIPC - Cervia AFB Ravenna

CURRENT METAR :
  • 251155Z 12012KT 9999 FEW030 BKN055 19/11 Q1013 RMK BKN VIS MIN 9999 WIND THR11 12008KT WIND THR29 10011KT BLU

EXPIRED METARs :
  • 251055Z 10007KT 9999 FEW030 SCT050 20/11 Q1014 RMK BKN VIS MIN 9999 WIND THR11 10007KT WIND THR29 07007KT BLU
  • 250955Z 26003KT 9999 FEW030 SCT050 20/10 Q1014

TAF TAF LIPC
Valid from the 25 at 12:00 until the 25 at 21:00 UTC


251100Z 2512/2521 25005KT 9999 FEW030 SCT050
BECMG 2517/2519 14010KT
No reported NOTAMs for that airfield.



MET'MAP, your aeronautical weather chart ! - Copyright ORBIFLY December 2007 - Disclaimer

ORBIFLY MET'MAP TEAM :

Programming & Development : Alexandra Zaïnal
Concept & Development : Baudouin d'Aumeries
Co-Development & Prog : Marc-Olivier Méhu
Technical & hardware support : Manuel Goepfert

Contact : metmap@orbifly.com




SOURCES & CREDITS :

   NOAA